createdAt,value
2022-09-28T00:01:19.281Z,81.62
2022-09-28T00:03:45.579Z,81.12
2022-09-28T00:06:12.187Z,80.47
2022-09-28T00:08:38.426Z,80.81
2022-09-28T00:11:04.687Z,80.14
2022-09-28T00:13:33.140Z,81.04
2022-09-28T00:15:59.627Z,80.94
2022-09-28T00:18:26.480Z,81.88
2022-09-28T00:20:52.764Z,80.42
2022-09-28T00:23:19.018Z,80.83
2022-09-28T00:25:45.288Z,79.42
2022-09-28T00:28:11.539Z,80.60
2022-09-28T00:30:37.898Z,79.52
2022-09-28T00:33:04.154Z,79.07
2022-09-28T00:35:30.968Z,78.70
2022-09-28T00:37:57.219Z,78.48
2022-09-28T00:40:23.489Z,79.44
2022-09-28T00:42:49.771Z,78.57
2022-09-28T00:45:16.024Z,78.44
2022-09-28T00:47:42.290Z,79.70
2022-09-28T00:50:08.554Z,79.48
2022-09-28T00:52:34.810Z,79.42
2022-09-28T00:55:01.229Z,78.79
2022-09-28T00:57:27.483Z,78.94
2022-09-28T00:59:53.762Z,79.55
2022-09-28T01:02:20.132Z,79.93
2022-09-28T01:04:46.447Z,79.75
2022-09-28T01:07:12.707Z,79.62
2022-09-28T01:09:39.001Z,80.89
2022-09-28T01:12:05.256Z,81.55
2022-09-28T01:14:31.665Z,80.50
2022-09-28T01:16:58.780Z,81.58
2022-09-28T01:19:24.967Z,82.10
2022-09-28T01:21:51.416Z,81.59
2022-09-28T01:24:17.683Z,81.65
2022-09-28T01:26:44.018Z,81.56
2022-09-28T01:29:10.341Z,81.34
2022-09-28T01:31:36.989Z,81.44
2022-09-28T01:34:03.299Z,81.97
2022-09-28T01:36:29.546Z,82.19
2022-09-28T01:38:55.797Z,82.19
2022-09-28T01:41:22.058Z,82.76
2022-09-28T01:43:48.309Z,82.73
2022-09-28T01:46:14.727Z,83.10
2022-09-28T01:48:41.008Z,81.87
2022-09-28T01:51:07.268Z,82.67
2022-09-28T01:53:33.528Z,83.44
2022-09-28T01:55:59.789Z,82.76
2022-09-28T01:58:26.039Z,83.81
2022-09-28T02:00:52.528Z,84.71
2022-09-28T02:03:18.834Z,85.83
2022-09-28T02:05:45.091Z,83.94
2022-09-28T02:08:11.335Z,83.61
2022-09-28T02:10:37.632Z,83.81
2022-09-28T02:13:04.674Z,83.66
2022-09-28T02:15:30.982Z,83.43
2022-09-28T02:17:57.250Z,85.06
2022-09-28T02:20:23.839Z,84.89
2022-09-28T02:22:50.104Z,83.64
2022-09-28T02:25:16.374Z,83.65
2022-09-28T02:27:42.691Z,84.09
2022-09-28T02:30:08.963Z,82.06
2022-09-28T02:32:35.204Z,82.30
2022-09-28T02:35:01.464Z,83.43
2022-09-28T02:37:27.714Z,83.84
2022-09-28T02:39:54.034Z,83.46
2022-09-28T02:42:20.303Z,83.79
2022-09-28T02:44:46.557Z,83.98
2022-09-28T02:47:12.823Z,84.33
2022-09-28T02:49:39.244Z,83.53
2022-09-28T02:52:05.519Z,82.84
2022-09-28T02:54:31.758Z,82.93
2022-09-28T02:56:58.003Z,82.35
2022-09-28T02:59:24.274Z,81.87
2022-09-28T03:01:50.564Z,81.93
2022-09-28T03:04:16.853Z,82.81
2022-09-28T03:06:43.127Z,82.64
2022-09-28T03:09:09.389Z,83.04
2022-09-28T03:11:35.663Z,82.37
2022-09-28T03:14:01.925Z,82.22
2022-09-28T03:16:29.024Z,81.81
2022-09-28T03:18:55.234Z,81.70
2022-09-28T03:21:21.491Z,81.79
2022-09-28T03:23:47.943Z,81.79
2022-09-28T03:26:14.471Z,82.07
2022-09-28T03:28:40.724Z,81.95
2022-09-28T03:31:07.075Z,83.33
2022-09-28T03:33:33.383Z,83.81
2022-09-28T03:35:59.626Z,83.90
2022-09-28T03:38:25.870Z,84.00
2022-09-28T03:40:52.182Z,83.92
2022-09-28T03:43:18.476Z,85.04
2022-09-28T03:45:44.778Z,84.59
2022-09-28T03:48:11.068Z,83.92
2022-09-28T03:50:37.323Z,83.95
2022-09-28T03:53:03.592Z,83.07
2022-09-28T03:55:29.950Z,83.84
2022-09-28T03:57:56.187Z,84.00
2022-09-28T04:00:22.979Z,83.81
2022-09-28T04:02:49.438Z,84.35
2022-09-28T04:05:15.697Z,84.18
2022-09-28T04:07:42.053Z,84.29
2022-09-28T04:10:08.315Z,83.94
2022-09-28T04:12:34.571Z,84.50
2022-09-28T04:15:00.826Z,85.17
2022-09-28T04:17:27.080Z,85.57
2022-09-28T04:19:53.341Z,85.80
2022-09-28T04:22:19.588Z,84.91
2022-09-28T04:24:46.468Z,85.31
2022-09-28T04:27:31.627Z,84.82
2022-09-28T04:29:57.883Z,85.28
2022-09-28T04:32:24.133Z,85.03
2022-09-28T04:34:51.304Z,85.66
2022-09-28T04:37:17.486Z,85.99
2022-09-28T04:39:47.564Z,86.00
2022-09-28T04:42:14.578Z,86.74
2022-09-28T04:44:40.830Z,87.02
2022-09-28T04:47:07.079Z,87.65
2022-09-28T04:49:35.379Z,86.99
2022-09-28T04:52:01.676Z,86.27
2022-09-28T04:54:27.968Z,86.42
2022-09-28T04:56:55.325Z,86.46
2022-09-28T04:59:21.566Z,85.94
2022-09-28T05:01:48.367Z,86.07
2022-09-28T05:04:14.662Z,85.75
2022-09-28T05:06:40.924Z,84.74
2022-09-28T05:09:07.230Z,84.56
2022-09-28T05:11:33.488Z,84.53
2022-09-28T05:13:59.882Z,84.68
2022-09-28T05:16:27.022Z,84.89
2022-09-28T05:18:53.232Z,83.72
2022-09-28T05:21:20.063Z,83.74
2022-09-28T05:23:46.327Z,82.96
2022-09-28T05:26:12.571Z,82.31
2022-09-28T05:28:38.839Z,82.72
2022-09-28T05:31:05.152Z,82.82
2022-09-28T05:33:31.386Z,82.50
2022-09-28T05:36:01.042Z,82.21
2022-09-28T05:38:28.319Z,82.29
2022-09-28T05:40:54.703Z,82.77
2022-09-28T05:43:21.021Z,82.58
2022-09-28T05:45:50.428Z,82.79
2022-09-28T05:48:20.710Z,82.45
2022-09-28T05:50:46.949Z,82.69
2022-09-28T05:53:13.246Z,82.60
2022-09-28T05:55:39.903Z,82.68
2022-09-28T05:58:06.244Z,83.23
2022-09-28T06:00:32.484Z,83.16
2022-09-28T06:02:58.776Z,83.01
2022-09-28T06:05:25.067Z,83.72
2022-09-28T06:07:51.314Z,83.78
2022-09-28T06:10:17.580Z,84.04
2022-09-28T06:12:44.819Z,83.83
2022-09-28T06:15:11.093Z,83.64
2022-09-28T06:17:37.338Z,82.89
2022-09-28T06:20:03.732Z,82.53
2022-09-28T06:22:29.999Z,83.28
2022-09-28T06:24:56.250Z,82.84
2022-09-28T06:27:22.530Z,82.65
2022-09-28T06:29:48.796Z,82.40
2022-09-28T06:32:15.055Z,82.46
2022-09-28T06:34:41.996Z,82.47
2022-09-28T06:37:08.253Z,81.84
2022-09-28T06:39:34.499Z,81.44
2022-09-28T06:42:03.178Z,81.45
2022-09-28T06:44:29.437Z,81.63
2022-09-28T06:46:58.477Z,80.84
2022-09-28T06:49:27.688Z,80.21
2022-09-28T06:51:53.934Z,80.58
2022-09-28T06:54:20.394Z,80.93
2022-09-28T06:56:46.648Z,80.68
2022-09-28T06:59:12.915Z,80.83
2022-09-28T07:01:39.218Z,80.86
2022-09-28T07:04:05.515Z,81.01
2022-09-28T07:06:31.788Z,81.16
2022-09-28T07:09:11.510Z,80.66
2022-09-28T07:11:46.551Z,80.76
2022-09-28T07:14:24.882Z,80.42
2022-09-28T07:17:12.278Z,80.57
2022-09-28T07:19:39.735Z,80.51
2022-09-28T07:22:05.992Z,80.23
2022-09-28T07:24:32.234Z,80.34
2022-09-28T07:26:58.482Z,80.54
2022-09-28T07:29:25.759Z,80.17
2022-09-28T07:31:52.002Z,80.49
2022-09-28T07:34:18.654Z,80.63
2022-09-28T07:36:45.002Z,81.68
2022-09-28T07:39:12.107Z,80.85
2022-09-28T07:41:39.608Z,81.84
2022-09-28T07:44:06.085Z,82.04
2022-09-28T07:46:32.482Z,82.06
2022-09-28T07:48:58.732Z,82.32
2022-09-28T07:51:28.135Z,81.62
2022-09-28T07:53:54.378Z,81.68
2022-09-28T07:56:20.625Z,81.31
2022-09-28T07:58:46.876Z,80.76
2022-09-28T08:01:16.703Z,80.98
2022-09-28T08:03:46.217Z,80.64
2022-09-28T08:06:12.719Z,80.86
2022-09-28T08:08:43.683Z,80.74
2022-09-28T08:11:10.450Z,81.17
2022-09-28T08:13:37.198Z,80.94
2022-09-28T08:16:03.452Z,80.97
2022-09-28T08:18:29.712Z,82.54
2022-09-28T08:21:14.362Z,83.26
2022-09-28T08:23:40.627Z,82.83
2022-09-28T08:26:06.887Z,82.20
2022-09-28T08:28:33.142Z,83.03
2022-09-28T08:30:59.392Z,84.03
2022-09-28T08:33:25.854Z,84.08
2022-09-28T08:35:52.097Z,85.88
2022-09-28T08:38:18.404Z,84.87
2022-09-28T08:40:44.815Z,82.66
2022-09-28T08:43:11.270Z,80.93
2022-09-28T08:45:37.542Z,80.02
2022-09-28T08:48:22.460Z,77.49
2022-09-28T08:50:48.709Z,78.36
2022-09-28T08:53:14.958Z,78.87
2022-09-28T08:55:41.230Z,76.25
2022-09-28T08:58:07.493Z,76.93
2022-09-28T09:00:34.150Z,81.01
2022-09-28T09:03:00.441Z,82.95
2022-09-28T09:05:26.742Z,82.39
2022-09-28T09:07:52.995Z,85.69
2022-09-28T09:10:19.253Z,84.30
2022-09-28T09:12:45.556Z,84.29
2022-09-28T09:15:11.836Z,84.13
2022-09-28T09:17:38.090Z,83.97
2022-09-28T09:20:04.355Z,83.34
2022-09-28T09:22:30.611Z,83.10
2022-09-28T09:24:56.965Z,83.89
2022-09-28T09:27:23.222Z,83.34
2022-09-28T09:29:50.132Z,84.01
2022-09-28T09:32:16.378Z,84.79
2022-09-28T09:34:42.658Z,85.86
2022-09-28T09:37:08.907Z,85.52
2022-09-28T09:39:35.193Z,84.78
2022-09-28T09:42:01.448Z,84.22
2022-09-28T09:44:27.705Z,85.31
2022-09-28T09:46:54.086Z,84.36
2022-09-28T09:49:20.532Z,84.99
2022-09-28T09:51:46.825Z,85.74
2022-09-28T09:54:13.525Z,85.12
2022-09-28T09:56:39.871Z,85.52
2022-09-28T09:59:06.738Z,86.18
2022-09-28T10:01:33.070Z,86.48
2022-09-28T10:03:59.370Z,85.81
2022-09-28T10:06:26.399Z,85.62
2022-09-28T10:08:53.804Z,86.68
2022-09-28T10:11:20.087Z,87.34
2022-09-28T10:13:46.644Z,86.73
2022-09-28T10:16:12.947Z,85.72
2022-09-28T10:18:39.243Z,84.95
2022-09-28T10:21:05.539Z,85.07
2022-09-28T10:23:33.778Z,84.18
2022-09-28T10:26:00.514Z,85.67
2022-09-28T10:28:26.776Z,84.92
2022-09-28T10:30:53.168Z,85.21
2022-09-28T10:33:19.489Z,85.02
2022-09-28T10:35:47.759Z,85.45
2022-09-28T10:38:14.013Z,85.51
2022-09-28T10:40:40.354Z,85.31
2022-09-28T10:43:06.658Z,85.51
2022-09-28T10:45:32.918Z,84.48
2022-09-28T10:48:00.785Z,84.55
2022-09-28T10:50:27.040Z,86.75
2022-09-28T10:52:53.291Z,86.79
2022-09-28T10:55:19.545Z,87.59
2022-09-28T10:57:45.788Z,87.72
2022-09-28T11:00:12.184Z,88.84
2022-09-28T11:02:38.520Z,89.17
2022-09-28T11:05:04.821Z,91.05
2022-09-28T11:07:31.812Z,91.46
2022-09-28T11:09:58.877Z,89.72
2022-09-28T11:12:26.040Z,89.33
2022-09-28T11:14:52.793Z,88.00
2022-09-28T11:17:19.081Z,88.32
2022-09-28T11:19:45.432Z,89.11
2022-09-28T11:22:13.797Z,92.66
2022-09-28T11:24:40.323Z,94.93
2022-09-28T11:27:06.575Z,94.33
2022-09-28T11:29:33.237Z,93.11
2022-09-28T11:31:59.548Z,91.69
2022-09-28T11:34:41.825Z,90.70
2022-09-28T11:37:15.886Z,89.45
2022-09-28T11:39:42.138Z,89.12
2022-09-28T11:42:10.957Z,88.83
2022-09-28T11:44:39.272Z,87.05
2022-09-28T11:47:05.567Z,86.18
2022-09-28T11:49:31.851Z,84.81
2022-09-28T11:51:58.142Z,85.03
2022-09-28T11:54:26.064Z,85.95
2022-09-28T11:56:52.321Z,84.48
2022-09-28T11:59:18.575Z,86.33
2022-09-28T12:01:44.867Z,84.78
2022-09-28T12:04:11.185Z,84.41
2022-09-28T12:06:37.514Z,86.49
2022-09-28T12:09:03.767Z,83.46
2022-09-28T12:11:30.326Z,85.68
2022-09-28T12:13:57.384Z,84.43
2022-09-28T12:16:45.658Z,83.29
2022-09-28T12:19:09.857Z,80.65
2022-09-28T12:21:36.118Z,82.80
2022-09-28T12:24:02.384Z,84.84
2022-09-28T12:26:29.112Z,83.18
2022-09-28T12:28:56.786Z,84.43
2022-09-28T12:31:23.121Z,83.83
2022-09-28T12:33:49.424Z,80.44
2022-09-28T12:36:16.009Z,80.91
2022-09-28T12:38:42.284Z,81.74
2022-09-28T12:41:10.617Z,82.67
2022-09-28T12:43:36.867Z,82.11
2022-09-28T12:46:18.253Z,81.83
2022-09-28T12:48:45.942Z,82.30
2022-09-28T12:51:16.590Z,81.80
2022-09-28T12:53:42.830Z,81.70
2022-09-28T12:56:09.138Z,78.25
2022-09-28T12:58:36.602Z,77.43
2022-09-28T13:01:02.858Z,77.58
2022-09-28T13:03:31.055Z,78.92
2022-09-28T13:05:57.333Z,79.25
2022-09-28T13:08:23.590Z,78.02
2022-09-28T13:10:50.168Z,78.21
2022-09-28T13:13:16.426Z,79.15
2022-09-28T13:15:42.737Z,80.79
2022-09-28T13:18:09.019Z,81.76
2022-09-28T13:20:35.679Z,79.86
2022-09-28T13:23:02.268Z,78.41
2022-09-28T13:25:28.528Z,78.29
2022-09-28T13:27:54.805Z,78.80
2022-09-28T13:30:21.053Z,79.48
2022-09-28T13:32:47.542Z,80.33
2022-09-28T13:35:13.939Z,79.67
2022-09-28T13:37:40.690Z,79.70
2022-09-28T13:40:07.263Z,77.53
2022-09-28T13:42:33.518Z,78.63
2022-09-28T13:45:00.133Z,77.05
2022-09-28T13:47:26.452Z,78.43
2022-09-28T13:49:52.699Z,77.76
2022-09-28T13:52:18.961Z,78.56
2022-09-28T13:54:45.251Z,78.41
2022-09-28T13:57:11.490Z,78.54
2022-09-28T13:59:37.751Z,79.55
2022-09-28T14:02:06.938Z,78.98
2022-09-28T14:04:33.626Z,79.46
2022-09-28T14:06:59.894Z,79.04
2022-09-28T14:09:26.163Z,78.07
2022-09-28T14:11:52.428Z,78.58
2022-09-28T14:14:18.697Z,79.17
2022-09-28T14:16:44.964Z,79.15
2022-09-28T14:19:11.280Z,79.11
2022-09-28T14:21:37.828Z,77.67
2022-09-28T14:24:04.080Z,78.48
2022-09-28T14:26:30.395Z,79.96
2022-09-28T14:28:56.640Z,80.54
2022-09-28T14:31:22.941Z,80.45
2022-09-28T14:33:49.286Z,79.99
2022-09-28T14:36:35.547Z,81.14
2022-09-28T14:39:20.432Z,83.65
2022-09-28T14:41:46.741Z,85.05
2022-09-28T14:44:13.000Z,85.60
2022-09-28T14:46:40.323Z,83.30
2022-09-28T14:49:06.635Z,84.05
2022-09-28T14:51:34.876Z,85.90
2022-09-28T14:54:01.138Z,86.43
2022-09-28T14:56:32.493Z,84.28
2022-09-28T14:58:59.112Z,86.02
2022-09-28T15:01:25.432Z,84.65
2022-09-28T15:03:52.203Z,86.98
2022-09-28T15:06:19.995Z,86.51
2022-09-28T15:08:46.251Z,83.13
2022-09-28T15:11:12.511Z,84.88
2022-09-28T15:13:40.619Z,85.66
2022-09-28T15:16:06.833Z,83.13
2022-09-28T15:18:33.207Z,83.70
2022-09-28T15:20:59.463Z,84.04
2022-09-28T15:23:25.982Z,82.99
2022-09-28T15:25:52.244Z,82.55
2022-09-28T15:28:18.497Z,80.54
2022-09-28T15:30:45.661Z,80.40
2022-09-28T15:33:30.759Z,80.64
2022-09-28T15:35:57.012Z,77.61
2022-09-28T15:38:23.273Z,79.63
2022-09-28T15:40:49.584Z,79.34
2022-09-28T15:43:15.908Z,77.77
2022-09-28T15:45:44.048Z,79.52
2022-09-28T15:48:11.575Z,78.52
2022-09-28T15:50:38.176Z,78.56
2022-09-28T15:53:04.424Z,78.61
2022-09-28T15:55:30.673Z,80.63
2022-09-28T15:57:56.924Z,79.68
2022-09-28T16:00:23.232Z,79.47
2022-09-28T16:02:49.587Z,81.36
2022-09-28T16:05:15.887Z,81.61
2022-09-28T16:07:42.126Z,77.92
2022-09-28T16:10:08.366Z,78.70
2022-09-28T16:12:34.712Z,78.32
2022-09-28T16:15:01.017Z,79.16
2022-09-28T16:17:31.335Z,78.71
2022-09-28T16:19:57.591Z,77.46
2022-09-28T16:22:28.117Z,78.60
2022-09-28T16:24:55.640Z,78.96
2022-09-28T16:27:21.892Z,79.08
2022-09-28T16:29:48.138Z,80.01
2022-09-28T16:32:14.749Z,82.13
2022-09-28T16:34:41.011Z,81.72
2022-09-28T16:37:07.264Z,80.86
2022-09-28T16:39:33.520Z,81.82
2022-09-28T16:41:59.804Z,81.62
2022-09-28T16:44:26.107Z,81.30
2022-09-28T16:46:53.815Z,82.83
2022-09-28T16:49:20.206Z,83.10
2022-09-28T16:51:46.792Z,83.59
2022-09-28T16:54:31.824Z,83.50
2022-09-28T16:56:58.178Z,82.75
2022-09-28T16:59:24.523Z,81.59
2022-09-28T17:01:50.865Z,82.46
2022-09-28T17:04:17.191Z,83.77
2022-09-28T17:06:43.485Z,83.66
2022-09-28T17:09:09.753Z,83.18
2022-09-28T17:11:36.019Z,85.20
2022-09-28T17:14:03.790Z,84.70
2022-09-28T17:19:17.786Z,84.03
2022-09-28T17:21:44.313Z,84.21
2022-09-28T17:24:10.563Z,84.52
2022-09-28T17:26:36.802Z,86.19
2022-09-28T17:29:03.076Z,86.14
2022-09-28T17:31:29.340Z,86.28
2022-09-28T17:33:55.625Z,85.47
2022-09-28T17:36:21.876Z,84.27
2022-09-28T17:38:48.199Z,83.99
2022-09-28T17:41:19.390Z,85.40
2022-09-28T17:43:46.606Z,85.52
2022-09-28T17:46:12.918Z,85.60
2022-09-28T17:48:39.207Z,86.34
2022-09-28T17:51:05.588Z,86.32
2022-09-28T17:53:31.852Z,87.67
2022-09-28T17:55:58.103Z,86.33
2022-09-28T17:58:24.391Z,86.36
2022-09-28T18:00:50.643Z,87.32
2022-09-28T18:03:16.911Z,87.04
2022-09-28T18:05:43.164Z,86.61
2022-09-28T18:08:09.452Z,86.21
2022-09-28T18:10:35.706Z,86.27
2022-09-28T18:13:01.957Z,86.05
2022-09-28T18:15:28.265Z,86.11
2022-09-28T18:17:57.700Z,86.58
2022-09-28T18:20:23.958Z,86.04
2022-09-28T18:22:50.299Z,86.52
2022-09-28T18:25:16.599Z,86.37
2022-09-28T18:27:43.123Z,86.76
2022-09-28T18:30:09.403Z,87.46
2022-09-28T18:32:36.816Z,87.04
2022-09-28T18:35:03.070Z,86.67
2022-09-28T18:37:29.314Z,86.55
2022-09-28T18:39:55.578Z,86.77
2022-09-28T18:42:21.830Z,87.24
2022-09-28T18:44:48.087Z,87.49
2022-09-28T18:47:15.013Z,86.64
2022-09-28T18:49:45.909Z,86.44
2022-09-28T18:52:12.896Z,86.29
2022-09-28T18:54:40.190Z,86.30
2022-09-28T18:57:06.443Z,86.10
2022-09-28T18:59:32.792Z,87.68
2022-09-28T19:02:01.245Z,88.49
2022-09-28T19:04:27.538Z,87.69
2022-09-28T19:06:54.340Z,87.92
2022-09-28T19:09:20.779Z,87.15
2022-09-28T19:11:47.060Z,87.71
2022-09-28T19:14:15.152Z,88.29
2022-09-28T19:16:41.335Z,88.96
2022-09-28T19:19:07.609Z,88.78
2022-09-28T19:21:33.925Z,88.38
2022-09-28T19:24:00.243Z,87.84
2022-09-28T19:26:27.254Z,88.92
2022-09-28T19:28:53.499Z,88.24
2022-09-28T19:31:19.752Z,88.70
2022-09-28T19:33:46.427Z,88.30
2022-09-28T19:36:13.172Z,89.41
2022-09-28T19:38:39.409Z,88.30
2022-09-28T19:41:05.680Z,88.08
2022-09-28T19:43:31.975Z,87.83
2022-09-28T19:45:58.278Z,87.52
2022-09-28T19:48:26.148Z,87.90
2022-09-28T19:50:53.104Z,87.16
2022-09-28T19:53:19.379Z,87.26
2022-09-28T19:55:45.630Z,86.89
2022-09-28T19:58:12.108Z,86.83
2022-09-28T20:00:38.365Z,86.97
2022-09-28T20:03:04.752Z,86.88
2022-09-28T20:05:31.100Z,87.74
2022-09-28T20:07:57.402Z,87.72
2022-09-28T20:10:23.675Z,88.28
2022-09-28T20:12:49.916Z,88.41
2022-09-28T20:15:16.501Z,88.41
2022-09-28T20:17:42.756Z,87.24
2022-09-28T20:20:09.044Z,86.84
2022-09-28T20:22:35.307Z,86.71
2022-09-28T20:25:02.671Z,86.47
2022-09-28T20:27:28.932Z,86.60
2022-09-28T20:29:55.212Z,86.02
2022-09-28T20:32:21.467Z,85.97
2022-09-28T20:34:47.727Z,85.98
2022-09-28T20:37:17.117Z,87.04
2022-09-28T20:39:45.112Z,86.10
2022-09-28T20:42:11.560Z,86.83
2022-09-28T20:44:37.810Z,86.18
2022-09-28T20:47:04.062Z,86.99
2022-09-28T20:49:31.646Z,86.53
2022-09-28T20:51:57.922Z,88.63
2022-09-28T20:54:24.564Z,89.64
2022-09-28T20:56:50.843Z,89.20
2022-09-28T20:59:17.108Z,89.58
2022-09-28T21:01:43.344Z,88.38
2022-09-28T21:04:09.645Z,87.74
2022-09-28T21:06:35.896Z,87.45
2022-09-28T21:09:02.091Z,87.16
2022-09-28T21:11:28.281Z,87.89
2022-09-28T21:13:54.539Z,87.27
2022-09-28T21:16:20.728Z,87.54
2022-09-28T21:18:46.934Z,87.27
2022-09-28T21:21:13.116Z,86.82
2022-09-28T21:23:39.430Z,86.77
2022-09-28T21:26:05.732Z,86.44
2022-09-28T21:28:32.076Z,87.04
2022-09-28T21:30:58.421Z,87.21
2022-09-28T21:33:24.643Z,87.08
2022-09-28T21:35:50.900Z,86.63
2022-09-28T21:38:17.078Z,87.08
2022-09-28T21:40:43.950Z,87.50
2022-09-28T21:43:10.328Z,87.74
2022-09-28T21:45:38.260Z,87.27
2022-09-28T21:48:04.584Z,87.43
2022-09-28T21:50:30.875Z,88.43
2022-09-28T21:52:57.081Z,88.14
2022-09-28T21:55:23.262Z,88.66
2022-09-28T21:57:50.679Z,88.12
2022-09-28T22:00:23.210Z,89.18
2022-09-28T22:02:49.485Z,89.35
2022-09-28T22:05:15.756Z,88.65
2022-09-28T22:07:42.267Z,88.86
2022-09-28T22:10:08.450Z,90.09
2022-09-28T22:12:34.665Z,89.94
2022-09-28T22:15:00.851Z,88.63
2022-09-28T22:17:27.140Z,88.92
2022-09-28T22:19:53.355Z,88.33
2022-09-28T22:22:19.534Z,87.92
2022-09-28T22:24:45.720Z,87.83
2022-09-28T22:27:11.894Z,87.16
2022-09-28T22:29:38.084Z,87.22
2022-09-28T22:32:04.279Z,86.97
2022-09-28T22:34:31.655Z,86.81
2022-09-28T22:36:57.927Z,87.15
2022-09-28T22:39:24.151Z,88.68
2022-09-28T22:41:50.342Z,89.54
2022-09-28T22:44:16.623Z,89.95
2022-09-28T22:46:42.929Z,89.57
2022-09-28T22:49:09.390Z,90.18
2022-09-28T22:51:35.562Z,90.69
2022-09-28T22:54:01.815Z,90.35
2022-09-28T22:56:27.992Z,89.87
2022-09-28T22:58:54.184Z,89.66
2022-09-28T23:01:20.910Z,89.65
2022-09-28T23:03:47.195Z,89.43
2022-09-28T23:06:13.431Z,89.43
2022-09-28T23:08:39.632Z,90.90
2022-09-28T23:11:05.829Z,91.25
2022-09-28T23:13:32.359Z,90.94
2022-09-28T23:15:58.637Z,91.81
2022-09-28T23:18:24.856Z,91.83
2022-09-28T23:20:51.052Z,92.17
2022-09-28T23:23:17.473Z,92.45
2022-09-28T23:25:43.663Z,92.22
2022-09-28T23:28:09.848Z,92.73
2022-09-28T23:30:36.054Z,92.01
2022-09-28T23:33:02.235Z,92.04
2022-09-28T23:35:28.568Z,92.34
2022-09-28T23:37:54.751Z,92.47
2022-09-28T23:40:20.988Z,92.01
2022-09-28T23:42:47.175Z,92.15
2022-09-28T23:45:13.642Z,91.75
2022-09-28T23:47:39.842Z,92.20
2022-09-28T23:50:06.034Z,91.70
2022-09-28T23:52:32.215Z,91.80
2022-09-28T23:54:58.528Z,91.53
2022-09-28T23:57:25.293Z,91.42
2022-09-28T23:59:51.486Z,91.51
